createdAt,value
2022-12-18T00:00:12.258Z,101546.75
2022-12-18T00:03:17.456Z,101553.00
2022-12-18T00:06:20.683Z,101555.63
2022-12-18T00:09:24.780Z,101561.72
2022-12-18T00:12:26.934Z,101564.38
2022-12-18T00:15:28.983Z,101565.13
2022-12-18T00:18:31.144Z,101567.78
2022-12-18T00:21:34.525Z,101569.47
2022-12-18T00:24:36.547Z,101571.91
2022-12-18T00:27:38.643Z,101579.69
2022-12-18T00:30:40.685Z,101583.19
2022-12-18T00:33:42.970Z,101584.88
2022-12-18T00:36:45.128Z,101598.72
2022-12-18T00:39:49.463Z,101593.50
2022-12-18T00:42:57.584Z,101595.13
2022-12-18T00:45:59.588Z,101589.91
2022-12-18T00:49:01.712Z,101594.22
2022-12-18T00:52:03.772Z,101600.16
2022-12-18T00:55:06.689Z,101603.56
2022-12-18T00:58:10.671Z,101607.97
2022-12-18T01:01:12.814Z,101608.06
2022-12-18T01:04:15.406Z,101609.00
2022-12-18T01:07:17.584Z,101618.50
2022-12-18T01:10:19.761Z,101624.53
2022-12-18T01:13:21.711Z,101630.53
2022-12-18T01:16:24.246Z,101631.28
2022-12-18T01:19:26.342Z,101632.97
2022-12-18T01:22:28.665Z,101629.53
2022-12-18T01:25:30.705Z,101640.94
2022-12-18T01:28:33.128Z,101650.50
2022-12-18T01:31:35.739Z,101645.34
2022-12-18T01:34:38.498Z,101645.19
2022-12-18T01:37:40.566Z,101650.25
2022-12-18T01:40:42.680Z,101656.16
2022-12-18T01:43:47.322Z,101646.69
2022-12-18T01:46:49.332Z,101650.25
2022-12-18T01:49:51.810Z,101651.19
2022-12-18T01:53:04.996Z,101663.28
2022-12-18T01:56:07.711Z,101663.34
2022-12-18T01:59:12.642Z,101666.69
2022-12-18T02:02:15.924Z,101668.34
2022-12-18T02:05:28.064Z,101672.56
2022-12-18T02:08:36.889Z,101671.53
2022-12-18T02:11:57.026Z,101680.13
2022-12-18T02:14:59.071Z,101675.97
2022-12-18T02:18:17.522Z,101681.91
2022-12-18T02:21:22.493Z,101671.38
2022-12-18T02:24:40.467Z,101671.38
2022-12-18T02:27:45.390Z,101676.63
2022-12-18T02:30:50.296Z,101672.25
2022-12-18T02:33:56.452Z,101678.44
2022-12-18T02:37:02.259Z,101682.00
2022-12-18T02:40:06.135Z,101690.59
2022-12-18T02:43:11.822Z,101689.66
2022-12-18T02:46:26.380Z,101694.84
2022-12-18T02:49:43.428Z,101703.31
2022-12-18T02:53:10.305Z,101692.81
2022-12-18T02:56:22.808Z,101692.78
2022-12-18T02:59:41.795Z,101698.00
2022-12-18T03:02:57.478Z,101703.19
2022-12-18T03:06:26.597Z,101698.97
2022-12-18T03:09:43.178Z,101704.97
2022-12-18T03:13:08.577Z,101712.63
2022-12-18T03:16:16.642Z,101721.13
2022-12-18T03:19:23.491Z,101720.19
2022-12-18T03:22:30.448Z,101713.28
2022-12-18T03:25:35.456Z,101719.41
2022-12-18T03:28:43.255Z,101723.03
2022-12-18T03:31:50.836Z,101717.87
2022-12-18T03:34:56.521Z,101720.44
2022-12-18T03:37:58.811Z,101721.31
2022-12-18T03:41:07.611Z,101722.09
2022-12-18T03:44:41.800Z,101726.38
2022-12-18T03:47:46.476Z,101721.13
2022-12-18T03:50:58.437Z,101722.84
2022-12-18T03:54:03.665Z,101710.75
2022-12-18T03:57:16.921Z,101720.31
2022-12-18T04:00:20.628Z,101720.31
2022-12-18T04:03:26.556Z,101731.41
2022-12-18T04:06:40.464Z,101734.81
2022-12-18T04:09:44.787Z,101726.16
2022-12-18T04:12:47.127Z,101730.56
2022-12-18T04:15:49.324Z,101713.06
2022-12-18T04:18:51.707Z,101740.91
2022-12-18T04:21:57.024Z,101743.41
2022-12-18T04:24:59.110Z,101752.84
2022-12-18T04:28:01.159Z,101762.41
2022-12-18T04:31:03.694Z,101763.22
2022-12-18T04:34:05.800Z,101752.78
2022-12-18T04:37:07.784Z,101763.06
2022-12-18T04:40:10.607Z,101768.19
2022-12-18T04:43:12.949Z,101768.13
2022-12-18T04:46:15.523Z,101765.53
2022-12-18T04:49:18.298Z,101770.66
2022-12-18T04:52:20.317Z,101775.03
2022-12-18T04:55:22.803Z,101780.22
2022-12-18T04:58:25.175Z,101770.75
2022-12-18T05:01:34.100Z,101789.59
2022-12-18T05:04:36.835Z,101788.69
2022-12-18T05:07:38.830Z,101792.97
2022-12-18T05:10:40.893Z,101793.72
2022-12-18T05:13:45.460Z,101797.06
2022-12-18T05:16:47.628Z,101798.56
2022-12-18T05:19:49.982Z,101808.00
2022-12-18T05:22:52.675Z,101802.91
2022-12-18T05:25:56.796Z,101812.53
2022-12-18T05:28:58.842Z,101822.03
2022-12-18T05:32:00.844Z,101832.31
2022-12-18T05:35:03.263Z,101833.16
2022-12-18T05:38:05.393Z,101826.84
2022-12-18T05:41:08.793Z,101844.69
2022-12-18T05:44:10.788Z,101854.03
2022-12-18T05:47:12.911Z,101854.75
2022-12-18T05:50:15.025Z,101860.53
2022-12-18T05:53:20.475Z,101872.41
2022-12-18T05:56:23.568Z,101874.16
2022-12-18T05:59:25.595Z,101874.09
2022-12-18T06:02:27.752Z,101892.19
2022-12-18T06:05:29.879Z,101895.53
2022-12-18T06:08:32.091Z,101898.81
2022-12-18T06:11:34.126Z,101908.19
2022-12-18T06:14:36.135Z,101900.22
2022-12-18T06:17:38.407Z,101901.91
2022-12-18T06:20:42.470Z,101900.03
2022-12-18T06:23:44.752Z,101904.16
2022-12-18T06:26:46.855Z,101903.12
2022-12-18T06:29:48.875Z,101908.34
2022-12-18T06:32:56.371Z,101905.63
2022-12-18T06:36:09.208Z,101914.97
2022-12-18T06:39:11.407Z,101905.53
2022-12-18T06:42:13.808Z,101906.34
2022-12-18T06:45:16.237Z,101934.78
2022-12-18T06:48:18.311Z,101932.13
2022-12-18T06:51:22.145Z,101946.66
2022-12-18T06:54:24.162Z,101939.84
2022-12-18T06:57:26.353Z,101942.53
2022-12-18T07:00:28.453Z,101954.78
2022-12-18T07:03:30.938Z,101965.94
2022-12-18T07:06:32.998Z,101967.69
2022-12-18T07:09:35.365Z,101965.09
2022-12-18T07:12:37.463Z,101967.69
2022-12-18T07:15:39.512Z,101973.00
2022-12-18T07:18:41.634Z,101976.03
2022-12-18T07:21:43.749Z,101982.16
2022-12-18T07:24:45.973Z,101980.62
2022-12-18T07:27:47.971Z,101983.31
2022-12-18T07:30:50.039Z,101996.37
2022-12-18T07:33:53.031Z,101998.12
2022-12-18T07:36:55.049Z,101990.47
2022-12-18T07:39:57.133Z,102000.31
2022-12-18T07:42:59.274Z,102006.78
2022-12-18T07:46:01.768Z,102008.78
2022-12-18T07:49:03.898Z,102006.41
2022-12-18T07:52:05.920Z,102029.97
2022-12-18T07:55:08.498Z,102030.34
2022-12-18T07:58:11.042Z,102033.09
2022-12-18T08:01:13.351Z,102040.25
2022-12-18T08:04:15.475Z,102031.84
2022-12-18T08:07:17.467Z,102043.44
2022-12-18T08:10:20.324Z,102042.94
2022-12-18T08:13:22.747Z,102035.66
2022-12-18T08:16:25.423Z,102041.13
2022-12-18T08:19:27.524Z,102030.19
2022-12-18T08:22:29.706Z,102026.09
2022-12-18T08:25:31.775Z,102028.28
2022-12-18T08:28:34.739Z,102034.63
2022-12-18T08:31:38.404Z,102035.22
2022-12-18T08:34:40.545Z,102027.13
2022-12-18T08:37:42.536Z,102021.50
2022-12-18T08:40:44.649Z,102021.16
2022-12-18T08:44:05.641Z,102024.00
2022-12-18T08:47:08.613Z,102029.16
2022-12-18T08:50:10.941Z,102032.66
2022-12-18T08:53:13.222Z,102024.97
2022-12-18T08:56:15.632Z,102021.72
2022-12-18T08:59:20.111Z,102028.66
2022-12-18T09:02:23.004Z,102037.25
2022-12-18T09:05:25.352Z,102039.06
2022-12-18T09:08:28.265Z,102043.87
2022-12-18T09:11:31.053Z,102052.22
2022-12-18T09:14:33.208Z,102066.00
2022-12-18T09:17:35.272Z,102070.28
2022-12-18T09:20:38.574Z,102068.31
2022-12-18T09:23:40.941Z,102078.75
2022-12-18T09:26:43.475Z,102076.97
2022-12-18T09:29:48.993Z,102075.97
2022-12-18T09:32:51.197Z,102068.94
2022-12-18T09:35:53.297Z,102064.50
2022-12-18T09:38:55.854Z,102059.38
2022-12-18T09:42:00.001Z,102059.31
2022-12-18T09:45:03.563Z,102060.28
2022-12-18T09:48:08.255Z,102048.19
2022-12-18T09:51:27.535Z,102048.31
2022-12-18T09:54:41.778Z,102038.06
2022-12-18T09:57:52.437Z,102041.62
2022-12-18T10:00:55.371Z,102033.09
2022-12-18T10:03:57.986Z,102026.16
2022-12-18T10:07:13.115Z,102028.84
2022-12-18T10:10:44.385Z,102035.12
2022-12-18T10:14:18.623Z,102040.91
2022-12-18T10:17:40.081Z,102028.62
2022-12-18T10:20:54.112Z,102028.25
2022-12-18T10:24:14.798Z,102029.31
2022-12-18T10:27:22.572Z,102020.66
2022-12-18T10:30:26.259Z,102021.50
2022-12-18T10:33:31.338Z,102025.69
2022-12-18T10:36:33.354Z,102010.81
2022-12-18T10:39:35.430Z,102010.88
2022-12-18T10:42:37.532Z,102018.88
2022-12-18T10:45:40.561Z,102020.59
2022-12-18T10:48:53.957Z,102014.56
2022-12-18T10:52:26.819Z,102011.97
2022-12-18T10:55:34.592Z,102001.50
2022-12-18T10:58:38.844Z,102003.25
2022-12-18T11:01:47.146Z,101998.88
2022-12-18T11:04:53.639Z,101995.41
2022-12-18T11:07:57.324Z,101998.00
2022-12-18T11:10:59.622Z,101994.53
2022-12-18T11:14:07.950Z,101997.13
2022-12-18T11:17:26.669Z,101988.41
2022-12-18T11:20:34.659Z,101992.78
2022-12-18T11:23:38.679Z,101978.84
2022-12-18T11:26:41.176Z,101976.22
2022-12-18T11:29:46.538Z,101978.81
2022-12-18T11:32:58.255Z,101977.94
2022-12-18T11:36:06.558Z,101975.34
2022-12-18T11:39:21.000Z,101984.94
2022-12-18T11:42:49.398Z,101971.00
2022-12-18T11:45:55.638Z,101979.72
2022-12-18T11:49:26.767Z,101984.94
2022-12-18T11:52:39.311Z,101978.84
2022-12-18T11:55:56.431Z,101970.13
2022-12-18T11:59:09.218Z,101971.00
2022-12-18T12:02:29.702Z,101960.56
2022-12-18T12:05:52.027Z,101970.13
2022-12-18T12:09:06.163Z,101964.94
2022-12-18T12:12:17.146Z,101972.72
2022-12-18T12:15:19.180Z,101968.38
2022-12-18T12:18:34.439Z,101961.44
2022-12-18T12:21:46.218Z,101962.31
2022-12-18T12:25:16.257Z,101964.91
2022-12-18T12:29:04.173Z,101965.78
2022-12-18T12:32:36.049Z,101958.81
2022-12-18T12:36:15.786Z,101958.78
2022-12-18T12:39:24.718Z,101952.72
2022-12-18T12:42:57.967Z,101955.31
2022-12-18T12:46:10.005Z,101951.84
2022-12-18T12:49:18.711Z,101953.56
2022-12-18T12:52:26.947Z,101939.66
2022-12-18T12:55:30.964Z,101938.75
2022-12-18T12:58:48.281Z,101939.66
2022-12-18T13:02:24.218Z,101937.00
2022-12-18T13:05:47.324Z,101943.97
2022-12-18T13:09:01.207Z,101936.13
2022-12-18T13:12:33.336Z,101938.75
2022-12-18T13:15:39.821Z,101937.84
2022-12-18T13:19:11.969Z,101937.84
2022-12-18T13:22:36.566Z,101936.16
2022-12-18T13:25:39.391Z,101943.97
2022-12-18T13:28:48.360Z,101949.19
2022-12-18T13:31:50.373Z,101950.91
2022-12-18T13:35:18.515Z,101954.44
2022-12-18T13:38:32.425Z,101958.78
2022-12-18T13:41:35.058Z,101962.25
2022-12-18T13:44:42.400Z,101964.81
2022-12-18T13:47:45.003Z,101970.03
2022-12-18T13:51:17.862Z,101972.63
2022-12-18T13:54:41.812Z,101976.06
2022-12-18T13:57:44.084Z,101985.63
2022-12-18T14:00:46.423Z,101989.06
2022-12-18T14:03:48.935Z,101989.91
2022-12-18T14:06:57.425Z,101995.06
2022-12-18T14:10:12.598Z,101997.66
2022-12-18T14:13:38.521Z,102000.22
2022-12-18T14:16:42.522Z,101998.47
2022-12-18T14:19:51.453Z,101994.09
2022-12-18T14:22:53.831Z,101995.81
2022-12-18T14:25:58.569Z,101996.63
2022-12-18T14:29:20.848Z,102006.16
2022-12-18T14:32:23.915Z,101998.34
2022-12-18T14:35:25.962Z,102014.84
2022-12-18T14:38:29.913Z,102015.66
2022-12-18T14:41:34.217Z,102020.81
2022-12-18T14:44:50.544Z,102022.47
2022-12-18T14:47:58.949Z,102024.16
2022-12-18T14:51:08.069Z,102017.09
2022-12-18T14:54:18.715Z,102028.31
2022-12-18T14:57:38.973Z,102030.72
2022-12-18T15:00:46.476Z,102035.81
2022-12-18T15:03:49.317Z,102039.09
2022-12-18T15:07:05.821Z,102048.47
2022-12-18T15:10:16.452Z,102058.72
2022-12-18T15:13:25.981Z,102060.41
2022-12-18T15:16:29.345Z,102058.59
2022-12-18T15:19:43.261Z,102062.72
2022-12-18T15:22:50.992Z,102065.97
2022-12-18T15:25:58.393Z,102060.56
2022-12-18T15:29:04.674Z,102075.09
2022-12-18T15:32:24.441Z,102081.00
2022-12-18T15:35:27.468Z,102087.28
2022-12-18T15:38:30.650Z,102077.69
2022-12-18T15:41:38.138Z,102081.91
2022-12-18T15:44:41.313Z,102086.91
2022-12-18T15:47:44.480Z,102085.81
2022-12-18T15:50:48.364Z,102083.88
2022-12-18T15:53:53.976Z,102079.50
2022-12-18T15:57:15.234Z,102079.50
2022-12-18T16:00:18.519Z,102083.06
2022-12-18T16:03:21.411Z,102102.09
2022-12-18T16:06:24.973Z,102097.78
2022-12-18T16:09:30.945Z,102094.22
2022-12-18T16:12:35.485Z,102102.78
2022-12-18T16:15:39.170Z,102102.69
2022-12-18T16:18:43.485Z,102101.94
2022-12-18T16:21:48.002Z,102101.81
2022-12-18T16:24:54.154Z,102098.25
2022-12-18T16:27:58.829Z,102087.09
2022-12-18T16:31:02.904Z,102082.03
2022-12-18T16:34:36.296Z,102074.25
2022-12-18T16:37:40.461Z,102089.72
2022-12-18T16:41:03.638Z,102089.66
2022-12-18T16:44:06.268Z,102090.50
2022-12-18T16:47:08.789Z,102090.41
2022-12-18T16:50:14.893Z,102092.91
2022-12-18T16:53:17.959Z,102108.37
2022-12-18T16:56:21.843Z,102119.47
2022-12-18T16:59:27.567Z,102121.03
2022-12-18T17:02:32.328Z,102118.22
2022-12-18T17:05:37.189Z,102121.56
2022-12-18T17:08:41.395Z,102124.75
2022-12-18T17:11:48.699Z,102127.22
2022-12-18T17:14:51.937Z,102125.59
2022-12-18T17:17:55.140Z,102130.66
2022-12-18T17:21:19.367Z,102127.12
2022-12-18T17:24:23.555Z,102125.34
2022-12-18T17:27:26.674Z,102130.50
2022-12-18T17:30:30.620Z,102128.59
2022-12-18T17:33:36.526Z,102136.31
2022-12-18T17:36:39.753Z,102126.84
2022-12-18T17:39:44.542Z,102130.88
2022-12-18T17:42:48.904Z,102131.53
2022-12-18T17:45:52.074Z,102131.47
2022-12-18T17:48:59.734Z,102134.13
2022-12-18T17:52:02.928Z,102148.66
2022-12-18T17:55:06.461Z,102140.03
2022-12-18T17:58:09.663Z,102134.78
2022-12-18T18:01:18.431Z,102136.47
2022-12-18T18:04:21.159Z,102137.22
2022-12-18T18:07:23.994Z,102140.56
2022-12-18T18:10:28.303Z,102140.25
2022-12-18T18:13:50.728Z,102145.28
2022-12-18T18:16:53.911Z,102147.97
2022-12-18T18:19:58.253Z,102155.72
2022-12-18T18:23:01.132Z,102153.06
2022-12-18T18:26:09.867Z,102151.31
2022-12-18T18:29:20.575Z,102153.69
2022-12-18T18:32:23.727Z,102154.53
2022-12-18T18:35:53.045Z,102151.09
2022-12-18T18:38:51.041Z,102157.91
2022-12-18T18:41:54.091Z,102161.34
2022-12-18T18:44:57.044Z,102168.78
2022-12-18T18:48:00.618Z,102160.00
2022-12-18T18:51:07.440Z,102164.22
2022-12-18T18:54:11.480Z,102171.06
2022-12-18T18:57:24.260Z,102178.69
2022-12-18T19:00:29.399Z,102179.50
2022-12-18T19:03:33.048Z,102182.91
2022-12-18T19:06:35.976Z,102174.28
2022-12-18T19:09:38.943Z,102182.91
2022-12-18T19:13:00.088Z,102175.84
2022-12-18T19:16:08.013Z,102175.84
2022-12-18T19:19:13.451Z,102192.31
2022-12-18T19:22:17.196Z,102181.22
2022-12-18T19:25:19.813Z,102199.34
2022-12-18T19:28:26.848Z,102195.00
2022-12-18T19:31:35.256Z,102198.34
2022-12-18T19:34:40.278Z,102191.38
2022-12-18T19:37:43.054Z,102191.34
2022-12-18T19:40:45.946Z,102179.31
2022-12-18T19:43:49.820Z,102188.88
2022-12-18T19:46:52.543Z,102192.22
2022-12-18T19:49:55.364Z,102196.56
2022-12-18T19:52:59.576Z,102190.44
2022-12-18T19:56:12.550Z,102189.50
2022-12-18T19:59:16.843Z,102187.84
2022-12-18T20:02:22.180Z,102186.09
2022-12-18T20:05:25.966Z,102188.59
2022-12-18T20:08:30.171Z,102189.37
2022-12-18T20:11:41.666Z,102191.88
2022-12-18T20:14:45.494Z,102194.31
2022-12-18T20:17:48.674Z,102199.41
2022-12-18T20:20:55.217Z,102212.31
2022-12-18T20:24:01.479Z,102207.16
2022-12-18T20:27:04.700Z,102201.16
2022-12-18T20:30:08.761Z,102207.41
2022-12-18T20:33:11.260Z,102202.91
2022-12-18T20:36:20.149Z,102202.97
2022-12-18T20:39:27.072Z,102197.56
2022-12-18T20:42:29.622Z,102203.50
2022-12-18T20:45:31.760Z,102198.31
2022-12-18T20:48:34.416Z,102206.16
2022-12-18T20:51:37.413Z,102206.06
2022-12-18T20:54:40.435Z,102214.50
2022-12-18T20:57:42.823Z,102197.00
2022-12-18T21:00:45.257Z,102210.69
2022-12-18T21:03:49.371Z,102215.91
2022-12-18T21:06:55.842Z,102225.31
2022-12-18T21:10:04.933Z,102222.63
2022-12-18T21:13:08.715Z,102214.81
2022-12-18T21:16:12.375Z,102221.69
2022-12-18T21:19:17.872Z,102217.34
2022-12-18T21:22:20.192Z,102219.00
2022-12-18T21:25:22.482Z,102213.66
2022-12-18T21:28:24.531Z,102213.53
2022-12-18T21:31:29.307Z,102223.00
2022-12-18T21:34:33.336Z,102220.47
2022-12-18T21:37:35.489Z,102214.31
2022-12-18T21:40:39.438Z,102205.66
2022-12-18T21:44:00.181Z,102209.03
2022-12-18T21:47:12.280Z,102206.34
2022-12-18T21:50:24.585Z,102194.19
2022-12-18T21:53:26.674Z,102195.03
2022-12-18T21:56:51.372Z,102199.34
2022-12-18T21:59:53.566Z,102187.13
2022-12-18T22:03:10.465Z,102199.16
2022-12-18T22:06:19.617Z,102202.53
2022-12-18T22:09:24.208Z,102202.41
2022-12-18T22:12:35.811Z,102200.59
2022-12-18T22:15:46.013Z,102192.81
2022-12-18T22:18:48.489Z,102191.91
2022-12-18T22:21:51.248Z,102180.59
2022-12-18T22:24:53.382Z,102191.78
2022-12-18T22:28:13.955Z,102194.25
2022-12-18T22:31:17.058Z,102188.12
2022-12-18T22:34:22.851Z,102180.31
2022-12-18T22:37:25.390Z,102184.59
2022-12-18T22:40:28.234Z,102185.09
2022-12-18T22:43:30.425Z,102184.88
2022-12-18T22:46:37.951Z,102188.12
2022-12-18T22:49:40.052Z,102187.94
2022-12-18T22:52:42.556Z,102186.97
2022-12-18T22:55:44.624Z,102184.41
2022-12-18T22:58:51.484Z,102191.53
2022-12-18T23:01:58.564Z,102189.06
2022-12-18T23:05:00.997Z,102195.91
2022-12-18T23:08:04.486Z,102199.50
2022-12-18T23:11:06.973Z,102204.41
2022-12-18T23:14:09.068Z,102206.75
2022-12-18T23:17:11.969Z,102199.97
2022-12-18T23:20:14.203Z,102211.44
2022-12-18T23:23:16.218Z,102201.09
2022-12-18T23:26:27.694Z,102205.06
2022-12-18T23:29:29.807Z,102214.06
2022-12-18T23:32:31.836Z,102217.53
2022-12-18T23:35:35.645Z,102219.41
2022-12-18T23:38:38.077Z,102217.69
2022-12-18T23:41:40.291Z,102218.41
2022-12-18T23:44:42.530Z,102212.22
2022-12-18T23:47:44.622Z,102202.44
2022-12-18T23:50:49.227Z,102196.00
2022-12-18T23:53:52.468Z,102202.72
2022-12-18T23:56:54.493Z,102193.56
2022-12-18T23:59:56.625Z,102197.09
